Wetterdaten: Sonntag, 24.06.2007
Datum Zeit Temp. A. Feuchte A. Luftdruck Regen Wind Richtung Richtung Sonnenschein UV Solar Windben
24.06.2007 00:00 14,4 C 91 % 1011,1 hPa 0,0 mm 0,0 km/h (0 Bft) S-SW 202 0 min 0 UV-I 0 W/m 1,6 km/h (1 Bft)
24.06.2007 00:10 14,3 C 90 % 1011,1 hPa 0,0 mm 0,0 km/h (0 Bft) S-SW 202 0 min 0 UV-I 0 W/m 1,6 km/h (1 Bft)
24.06.2007 00:20 14,1 C 91 % 1011,2 hPa 0,0 mm 0,0 km/h (0 Bft) S-SW 202 0 min 0 UV-I 0 W/m 1,6 km/h (1 Bft)
24.06.2007 00:30 13,9 C 91 % 1011,1 hPa 0,0 mm 0,0 km/h (0 Bft) S-SW 202 0 min 0 UV-I 0 W/m 1,6 km/h (1 Bft)
24.06.2007 00:40 13,9 C 91 % 1011,3 hPa 0,0 mm 0,0 km/h (0 Bft) S-SW 202 0 min 0 UV-I 0 W/m 3,2 km/h (1 Bft)
24.06.2007 00:50 13,9 C 91 % 1011,3 hPa 0,0 mm 0,0 km/h (0 Bft) S-SW 202 0 min 0 UV-I 0 W/m 3,2 km/h (1 Bft)
24.06.2007 01:00 13,9 C 91 % 1011,3 hPa 0,0 mm 0,0 km/h (0 Bft) S-SW 202 0 min 0 UV-I 0 W/m 3,2 km/h (1 Bft)
24.06.2007 01:10 14,0 C 91 % 1011,3 hPa 0,0 mm 0,0 km/h (0 Bft) S-SW 202 0 min 0 UV-I 0 W/m 4,8 km/h (1 Bft)
24.06.2007 01:20 14,1 C 90 % 1011,3 hPa 0,0 mm 0,0 km/h (0 Bft) S-SW 202 0 min 0 UV-I 0 W/m 3,2 km/h (1 Bft)
24.06.2007 01:30 14,1 C 90 % 1011,2 hPa 0,0 mm 1,6 km/h (1 Bft) S-SW 202 0 min 0 UV-I 0 W/m 3,2 km/h (1 Bft)
24.06.2007 01:40 14,1 C 90 % 1011,2 hPa 0,0 mm 0,0 km/h (0 Bft) S-SW 202 0 min 0 UV-I 0 W/m 4,8 km/h (1 Bft)
24.06.2007 01:50 14,1 C 90 % 1011,3 hPa 0,0 mm 1,6 km/h (1 Bft) S 180 0 min 0 UV-I 0 W/m 6,4 km/h (2 Bft)
24.06.2007 02:00 14,2 C 89 % 1011,3 hPa 0,0 mm 1,6 km/h (1 Bft) SW 225 0 min 0 UV-I 0 W/m 8,0 km/h (2 Bft)
24.06.2007 02:10 14,3 C 89 % 1011,4 hPa 0,0 mm 1,6 km/h (1 Bft) S 180 0 min 0 UV-I 0 W/m 6,4 km/h (2 Bft)
24.06.2007 02:20 14,3 C 88 % 1011,4 hPa 0,0 mm 1,6 km/h (1 Bft) SW 225 0 min 0 UV-I 0 W/m 6,4 km/h (2 Bft)
24.06.2007 02:30 14,2 C 87 % 1011,5 hPa 0,0 mm 1,6 km/h (1 Bft) SW 225 0 min 0 UV-I 0 W/m 4,8 km/h (1 Bft)
24.06.2007 02:40 14,0 C 88 % 1011,5 hPa 0,0 mm 0,0 km/h (0 Bft) W-SW 247 0 min 0 UV-I 0 W/m 1,6 km/h (1 Bft)
24.06.2007 02:50 13,9 C 90 % 1011,5 hPa 0,0 mm 0,0 km/h (0 Bft) W-SW 247 0 min 0 UV-I 0 W/m 1,6 km/h (1 Bft)
24.06.2007 03:00 13,9 C 89 % 1011,5 hPa 0,0 mm 0,0 km/h (0 Bft) W-SW 247 0 min 0 UV-I 0 W/m 1,6 km/h (1 Bft)
24.06.2007 03:10 14,0 C 89 % 1011,5 hPa 0,0 mm 0,0 km/h (0 Bft) W-SW 247 0 min 0 UV-I 0 W/m 1,6 km/h (1 Bft)
24.06.2007 03:20 13,9 C 89 % 1011,4 hPa 0,0 mm 0,0 km/h (0 Bft) W-SW 247 0 min 0 UV-I 0 W/m 1,6 km/h (1 Bft)
24.06.2007 03:30 13,8 C 89 % 1011,5 hPa 0,0 mm 0,0 km/h (0 Bft) W-SW 247 0 min 0 UV-I 0 W/m 3,2 km/h (1 Bft)
24.06.2007 03:40 13,8 C 89 % 1011,5 hPa 0,0 mm 0,0 km/h (0 Bft) S 180 0 min 0 UV-I 0 W/m 4,8 km/h (1 Bft)
24.06.2007 03:50 13,8 C 89 % 1011,5 hPa 0,0 mm 0,0 km/h (0 Bft) S 180 0 min 0 UV-I 0 W/m 4,8 km/h (1 Bft)
24.06.2007 04:00 14,0 C 89 % 1011,5 hPa 0,0 mm 1,6 km/h (1 Bft) S 180 0 min 0 UV-I 0 W/m 4,8 km/h (1 Bft)
24.06.2007 04:10 14,2 C 89 % 1011,6 hPa 0,0 mm 1,6 km/h (1 Bft) S 180 0 min 0 UV-I 0 W/m 6,4 km/h (2 Bft)
24.06.2007 04:20 14,3 C 89 % 1011,6 hPa 0,0 mm 0,0 km/h (0 Bft) S-SW 202 0 min 0 UV-I 0 W/m 4,8 km/h (1 Bft)
24.06.2007 04:30 14,4 C 89 % 1011,6 hPa 0,0 mm 0,0 km/h (0 Bft) S-SW 202 0 min 0 UV-I 0 W/m 3,2 km/h (1 Bft)
24.06.2007 04:40 14,5 C 89 % 1011,6 hPa 0,0 mm 0,0 km/h (0 Bft) S-SW 202 0 min 0 UV-I 0 W/m 4,8 km/h (1 Bft)
24.06.2007 04:50 14,6 C 89 % 1011,8 hPa 0,0 mm 1,6 km/h (1 Bft) S-SW 202 0 min 0 UV-I 0 W/m 4,8 km/h (1 Bft)
24.06.2007 05:00 14,5 C 88 % 1011,8 hPa 0,0 mm 1,6 km/h (1 Bft) S-SW 202 0 min 0 UV-I 0 W/m 6,4 km/h (2 Bft)
24.06.2007 05:10 14,6 C 88 % 1011,8 hPa 0,0 mm 1,6 km/h (1 Bft) S-SW 202 0 min 0 UV-I 0 W/m 4,8 km/h (1 Bft)
24.06.2007 05:20 14,4 C 88 % 1012,0 hPa 0,0 mm 1,6 km/h (1 Bft) S 180 0 min 0 UV-I 0 W/m 4,8 km/h (1 Bft)
24.06.2007 05:30 14,4 C 88 % 1012,0 hPa 0,0 mm 1,6 km/h (1 Bft) S-SW 202 0 min 0 UV-I 0 W/m 6,4 km/h (2 Bft)
24.06.2007 05:40 14,4 C 88 % 1012,1 hPa 0,0 mm 1,6 km/h (1 Bft) SW 225 0 min 0 UV-I 0 W/m 3,2 km/h (1 Bft)
24.06.2007 05:50 14,5 C 88 % 1012,1 hPa 0,0 mm 1,6 km/h (1 Bft) S-SW 202 0 min 0 UV-I 7 W/m 3,2 km/h (1 Bft)
24.06.2007 06:00 14,6 C 88 % 1012,3 hPa 0,0 mm 1,6 km/h (1 Bft) S-SW 202 0 min 0 UV-I 11 W/m 4,8 km/h (1 Bft)
24.06.2007 06:10 14,6 C 87 % 1012,3 hPa 0,0 mm 1,6 km/h (1 Bft) SW 225 0 min 0 UV-I 21 W/m 4,8 km/h (1 Bft)
24.06.2007 06:20 14,7 C 88 % 1012,2 hPa 0,0 mm 0,0 km/h (0 Bft) S-SW 202 0 min 0 UV-I 37 W/m 3,2 km/h (1 Bft)
24.06.2007 06:30 14,6 C 88 % 1012,3 hPa 0,0 mm 0,0 km/h (0 Bft) S 180 0 min 0 UV-I 49 W/m 3,2 km/h (1 Bft)
24.06.2007 06:40 14,4 C 88 % 1012,4 hPa 0,0 mm 0,0 km/h (0 Bft) S 180 10 min 0 UV-I 118 W/m 4,8 km/h (1 Bft)
24.06.2007 06:50 14,6 C 87 % 1012,4 hPa 0,0 mm 1,6 km/h (1 Bft) S 180 10 min 0 UV-I 135 W/m 6,4 km/h (2 Bft)
24.06.2007 07:00 14,8 C 87 % 1012,5 hPa 0,0 mm 0,0 km/h (0 Bft) S 180 10 min 0 UV-I 214 W/m 3,2 km/h (1 Bft)
24.06.2007 07:10 15,1 C 85 % 1012,5 hPa 0,0 mm 1,6 km/h (1 Bft) S-SW 202 10 min 1 UV-I 255 W/m 4,8 km/h (1 Bft)
24.06.2007 07:20 15,7 C 84 % 1012,5 hPa 0,3 mm 3,2 km/h (1 Bft) S-SW 202 10 min 1 UV-I 338 W/m 6,4 km/h (2 Bft)
24.06.2007 07:30 15,8 C 82 % 1012,5 hPa 0,0 mm 3,2 km/h (1 Bft) W-SW 247 0 min 1 UV-I 104 W/m 9,7 km/h (2 Bft)
24.06.2007 07:40 15,8 C 82 % 1012,7 hPa 0,0 mm 3,2 km/h (1 Bft) S-SW 202 10 min 1 UV-I 316 W/m 8,0 km/h (2 Bft)
24.06.2007 07:50 16,2 C 79 % 1012,7 hPa 0,0 mm 4,8 km/h (1 Bft) W 270 10 min 1 UV-I 394 W/m 12,9 km/h (3 Bft)
24.06.2007 08:00 16,2 C 79 % 1012,7 hPa 0,0 mm 4,8 km/h (1 Bft) S-SW 202 0 min 1 UV-I 139 W/m 11,3 km/h (2 Bft)
24.06.2007 08:10 16,0 C 79 % 1012,7 hPa 0,0 mm 3,2 km/h (1 Bft) W-SW 247 0 min 1 UV-I 167 W/m 11,3 km/h (2 Bft)
24.06.2007 08:20 16,1 C 78 % 1012,7 hPa 0,0 mm 3,2 km/h (1 Bft) W 270 0 min 1 UV-I 174 W/m 9,7 km/h (2 Bft)
24.06.2007 08:30 16,2 C 78 % 1012,9 hPa 0,0 mm 3,2 km/h (1 Bft) SW 225 0 min 1 UV-I 192 W/m 11,3 km/h (2 Bft)
24.06.2007 08:40 16,3 C 76 % 1012,9 hPa 0,0 mm 3,2 km/h (1 Bft) S-SW 202 0 min 1 UV-I 246 W/m 8,0 km/h (2 Bft)
24.06.2007 08:50 16,5 C 75 % 1012,9 hPa 0,0 mm 3,2 km/h (1 Bft) W-SW 247 0 min 1 UV-I 274 W/m 11,3 km/h (2 Bft)
24.06.2007 09:00 16,6 C 76 % 1013,0 hPa 0,0 mm 3,2 km/h (1 Bft) SW 225 0 min 1 UV-I 223 W/m 6,4 km/h (2 Bft)
24.06.2007 09:10 16,7 C 73 % 1013,0 hPa 0,0 mm 3,2 km/h (1 Bft) S-SW 202 0 min 2 UV-I 262 W/m 8,0 km/h (2 Bft)
24.06.2007 09:20 16,8 C 74 % 1013,0 hPa 0,0 mm 3,2 km/h (1 Bft) W-SW 247 0 min 2 UV-I 294 W/m 8,0 km/h (2 Bft)
24.06.2007 09:30 17,2 C 70 % 1012,9 hPa 0,0 mm 3,2 km/h (1 Bft) S-SW 202 10 min 3 UV-I 635 W/m 9,7 km/h (2 Bft)
24.06.2007 09:40 17,7 C 70 % 1012,9 hPa 0,0 mm 4,8 km/h (1 Bft) W-SW 247 10 min 3 UV-I 638 W/m 11,3 km/h (2 Bft)
24.06.2007 09:50 17,9 C 67 % 1013,0 hPa 0,0 mm 4,8 km/h (1 Bft) SW 225 10 min 3 UV-I 591 W/m 17,7 km/h (3 Bft)
24.06.2007 10:00 17,9 C 67 % 1012,9 hPa 0,0 mm 4,8 km/h (1 Bft) SW 225 10 min 4 UV-I 812 W/m 12,9 km/h (3 Bft)
24.06.2007 10:10 18,5 C 66 % 1012,8 hPa 0,0 mm 1,6 km/h (1 Bft) W-SW 247 10 min 4 UV-I 705 W/m 8,0 km/h (2 Bft)
24.06.2007 10:20 18,7 C 66 % 1012,8 hPa 0,0 mm 4,8 km/h (1 Bft) S-SW 202 10 min 3 UV-I 483 W/m 11,3 km/h (2 Bft)
24.06.2007 10:30 18,3 C 68 % 1012,9 hPa 0,0 mm 3,2 km/h (1 Bft) SW 225 10 min 4 UV-I 577 W/m 8,0 km/h (2 Bft)
24.06.2007 10:40 19,0 C 67 % 1012,9 hPa 0,0 mm 3,2 km/h (1 Bft) SW 225 10 min 5 UV-I 854 W/m 9,7 km/h (2 Bft)
24.06.2007 10:50 19,2 C 68 % 1012,8 hPa 0,0 mm 3,2 km/h (1 Bft) S 180 10 min 5 UV-I 459 W/m 11,3 km/h (2 Bft)
24.06.2007 11:00 18,9 C 66 % 1012,8 hPa 0,0 mm 3,2 km/h (1 Bft) W 270 0 min 2 UV-I 276 W/m 8,0 km/h (2 Bft)
24.06.2007 11:10 18,9 C 65 % 1012,8 hPa 0,0 mm 4,8 km/h (1 Bft) W 270 0 min 4 UV-I 397 W/m 17,7 km/h (3 Bft)
24.06.2007 11:20 19,4 C 63 % 1012,8 hPa 0,0 mm 3,2 km/h (1 Bft) W-SW 247 10 min 4 UV-I 536 W/m 9,7 km/h (2 Bft)
24.06.2007 11:30 19,6 C 64 % 1012,8 hPa 0,0 mm 4,8 km/h (1 Bft) S-SW 202 10 min 4 UV-I 533 W/m 9,7 km/h (2 Bft)
24.06.2007 11:40 19,5 C 62 % 1012,5 hPa 0,0 mm 4,8 km/h (1 Bft) W 270 10 min 5 UV-I 529 W/m 11,3 km/h (2 Bft)
24.06.2007 11:50 20,1 C 61 % 1012,5 hPa 0,0 mm 3,2 km/h (1 Bft) W 270 10 min 7 UV-I 953 W/m 14,5 km/h (3 Bft)
24.06.2007 12:00 20,4 C 60 % 1012,5 hPa 0,0 mm 6,4 km/h (2 Bft) W-SW 247 10 min 7 UV-I 991 W/m 22,5 km/h (4 Bft)
24.06.2007 12:10 20,5 C 60 % 1012,5 hPa 0,0 mm 4,8 km/h (1 Bft) S-SW 202 0 min 6 UV-I 327 W/m 14,5 km/h (3 Bft)
24.06.2007 12:20 19,7 C 62 % 1012,5 hPa 0,0 mm 4,8 km/h (1 Bft) S-SW 202 0 min 2 UV-I 176 W/m 9,7 km/h (2 Bft)
24.06.2007 12:30 19,5 C 61 % 1012,5 hPa 0,0 mm 4,8 km/h (1 Bft) S-SW 202 0 min 2 UV-I 230 W/m 11,3 km/h (2 Bft)
24.06.2007 12:40 19,4 C 63 % 1012,4 hPa 0,0 mm 3,2 km/h (1 Bft) W-SW 247 0 min 4 UV-I 429 W/m 8,0 km/h (2 Bft)
24.06.2007 12:50 20,1 C 61 % 1012,3 hPa 0,0 mm 4,8 km/h (1 Bft) SW 225 10 min 8 UV-I 912 W/m 11,3 km/h (2 Bft)
24.06.2007 13:00 20,6 C 60 % 1012,3 hPa 0,0 mm 3,2 km/h (1 Bft) SW 225 10 min 6 UV-I 777 W/m 11,3 km/h (2 Bft)
24.06.2007 13:10 19,9 C 63 % 1012,3 hPa 0,0 mm 4,8 km/h (1 Bft) W-SW 247 0 min 2 UV-I 202 W/m 11,3 km/h (2 Bft)
24.06.2007 13:20 19,6 C 63 % 1012,3 hPa 0,0 mm 6,4 km/h (2 Bft) W 270 0 min 4 UV-I 403 W/m 11,3 km/h (2 Bft)
24.06.2007 13:30 19,7 C 61 % 1012,2 hPa 0,0 mm 6,4 km/h (2 Bft) W 270 10 min 5 UV-I 589 W/m 17,7 km/h (3 Bft)
24.06.2007 13:40 20,2 C 59 % 1012,2 hPa 0,0 mm 6,4 km/h (2 Bft) W-SW 247 10 min 5 UV-I 483 W/m 16,1 km/h (3 Bft)
24.06.2007 13:50 20,5 C 57 % 1012,3 hPa 0,0 mm 6,4 km/h (2 Bft) W-SW 247 10 min 4 UV-I 492 W/m 17,7 km/h (3 Bft)
24.06.2007 14:00 20,7 C 56 % 1012,2 hPa 0,0 mm 4,8 km/h (1 Bft) S-SW 202 10 min 5 UV-I 522 W/m 14,5 km/h (3 Bft)
24.06.2007 14:10 20,8 C 57 % 1012,1 hPa 0,0 mm 6,4 km/h (2 Bft) W 270 10 min 6 UV-I 622 W/m 12,9 km/h (3 Bft)
24.06.2007 14:20 21,2 C 56 % 1012,0 hPa 0,0 mm 6,4 km/h (2 Bft) W-SW 247 10 min 9 UV-I 1223 W/m 16,1 km/h (3 Bft)
24.06.2007 14:30 21,4 C 58 % 1012,0 hPa 0,0 mm 6,4 km/h (2 Bft) W 270 10 min 8 UV-I 1056 W/m 16,1 km/h (3 Bft)
24.06.2007 14:40 21,4 C 57 % 1011,9 hPa 0,0 mm 6,4 km/h (2 Bft) W 270 10 min 6 UV-I 468 W/m 16,1 km/h (3 Bft)
24.06.2007 14:50 20,7 C 58 % 1011,8 hPa 0,0 mm 4,8 km/h (1 Bft) W-SW 247 0 min 3 UV-I 330 W/m 14,5 km/h (3 Bft)
24.06.2007 15:00 21,0 C 56 % 1011,8 hPa 0,0 mm 3,2 km/h (1 Bft) W-SW 247 10 min 5 UV-I 492 W/m 8,0 km/h (2 Bft)
24.06.2007 15:10 21,1 C 57 % 1011,7 hPa 0,0 mm 4,8 km/h (1 Bft) W-SW 247 10 min 6 UV-I 483 W/m 11,3 km/h (2 Bft)
24.06.2007 15:20 21,4 C 56 % 1011,5 hPa 0,0 mm 1,6 km/h (1 Bft) SW 225 10 min 4 UV-I 664 W/m 9,7 km/h (2 Bft)
24.06.2007 15:30 21,4 C 57 % 1011,5 hPa 0,0 mm 3,2 km/h (1 Bft) W-SW 247 0 min 3 UV-I 345 W/m 8,0 km/h (2 Bft)
24.06.2007 15:40 21,2 C 56 % 1011,5 hPa 0,0 mm 4,8 km/h (1 Bft) S-SW 202 0 min 2 UV-I 206 W/m 11,3 km/h (2 Bft)
24.06.2007 15:50 21,2 C 55 % 1011,4 hPa 0,0 mm 3,2 km/h (1 Bft) S-SW 202 0 min 3 UV-I 385 W/m 9,7 km/h (2 Bft)
24.06.2007 16:00 21,7 C 52 % 1011,4 hPa 0,0 mm 3,2 km/h (1 Bft) SW 225 10 min 5 UV-I 645 W/m 8,0 km/h (2 Bft)
24.06.2007 16:10 22,2 C 48 % 1011,2 hPa 0,0 mm 3,2 km/h (1 Bft) S-SW 202 10 min 4 UV-I 448 W/m 11,3 km/h (2 Bft)
24.06.2007 16:20 21,9 C 53 % 1011,2 hPa 0,0 mm 4,8 km/h (1 Bft) S-SW 202 10 min 4 UV-I 557 W/m 14,5 km/h (3 Bft)
24.06.2007 16:30 21,8 C 52 % 1011,2 hPa 0,0 mm 3,2 km/h (1 Bft) S-SW 202 10 min 3 UV-I 464 W/m 11,3 km/h (2 Bft)
24.06.2007 16:40 21,8 C 53 % 1011,1 hPa 0,0 mm 3,2 km/h (1 Bft) S-SW 202 10 min 3 UV-I 410 W/m 9,7 km/h (2 Bft)
24.06.2007 16:50 21,8 C 50 % 1011,0 hPa 0,0 mm 3,2 km/h (1 Bft) W-SW 247 0 min 3 UV-I 343 W/m 11,3 km/h (2 Bft)
24.06.2007 17:00 21,7 C 50 % 1010,9 hPa 0,0 mm 1,6 km/h (1 Bft) W-SW 247 10 min 2 UV-I 411 W/m 6,4 km/h (2 Bft)
24.06.2007 17:10 22,1 C 50 % 1010,8 hPa 0,0 mm 3,2 km/h (1 Bft) S-SW 202 10 min 3 UV-I 461 W/m 9,7 km/h (2 Bft)
24.06.2007 17:20 21,8 C 53 % 1010,7 hPa 0,0 mm 3,2 km/h (1 Bft) S 180 0 min 1 UV-I 162 W/m 8,0 km/h (2 Bft)
24.06.2007 17:30 21,3 C 57 % 1010,6 hPa 0,0 mm 1,6 km/h (1 Bft) S-SW 202 10 min 2 UV-I 380 W/m 6,4 km/h (2 Bft)
24.06.2007 17:40 21,9 C 56 % 1010,5 hPa 0,0 mm 3,2 km/h (1 Bft) S-SO 157 10 min 2 UV-I 497 W/m 8,0 km/h (2 Bft)
24.06.2007 17:50 22,2 C 56 % 1010,4 hPa 0,0 mm 3,2 km/h (1 Bft) W 270 10 min 2 UV-I 527 W/m 9,7 km/h (2 Bft)
24.06.2007 18:00 22,5 C 52 % 1010,3 hPa 0,0 mm 3,2 km/h (1 Bft) S 180 10 min 2 UV-I 524 W/m 9,7 km/h (2 Bft)
24.06.2007 18:10 22,8 C 52 % 1010,3 hPa 0,0 mm 3,2 km/h (1 Bft) S-SW 202 10 min 2 UV-I 490 W/m 8,0 km/h (2 Bft)
24.06.2007 18:20 22,7 C 53 % 1010,3 hPa 0,0 mm 4,8 km/h (1 Bft) S-SW 202 10 min 2 UV-I 573 W/m 14,5 km/h (3 Bft)
24.06.2007 18:30 22,7 C 53 % 1010,2 hPa 0,0 mm 3,2 km/h (1 Bft) SW 225 10 min 2 UV-I 541 W/m 9,7 km/h (2 Bft)
24.06.2007 18:40 22,8 C 49 % 1010,2 hPa 0,0 mm 4,8 km/h (1 Bft) W-SW 247 10 min 2 UV-I 487 W/m 16,1 km/h (3 Bft)
24.06.2007 18:50 22,8 C 49 % 1010,1 hPa 0,0 mm 3,2 km/h (1 Bft) S-SW 202 10 min 1 UV-I 459 W/m 9,7 km/h (2 Bft)
24.06.2007 19:00 22,8 C 51 % 1010,0 hPa 0,0 mm 4,8 km/h (1 Bft) S-SW 202 10 min 1 UV-I 485 W/m 11,3 km/h (2 Bft)
24.06.2007 19:10 22,3 C 52 % 1010,0 hPa 0,0 mm 3,2 km/h (1 Bft) W-SW 247 0 min 1 UV-I 169 W/m 14,5 km/h (3 Bft)
24.06.2007 19:20 21,9 C 54 % 1009,9 hPa 0,0 mm 3,2 km/h (1 Bft) W-SW 247 0 min 1 UV-I 174 W/m 8,0 km/h (2 Bft)
24.06.2007 19:30 21,9 C 54 % 1009,8 hPa 0,0 mm 1,6 km/h (1 Bft) W-SW 247 10 min 1 UV-I 325 W/m 4,8 km/h (1 Bft)
24.06.2007 19:40 22,2 C 54 % 1009,8 hPa 0,0 mm 1,6 km/h (1 Bft) S-SW 202 10 min 1 UV-I 269 W/m 6,4 km/h (2 Bft)
24.06.2007 19:50 21,8 C 56 % 1009,5 hPa 0,0 mm 1,6 km/h (1 Bft) S-SW 202 0 min 0 UV-I 107 W/m 3,2 km/h (1 Bft)
24.06.2007 20:00 21,8 C 56 % 1009,5 hPa 0,0 mm 1,6 km/h (1 Bft) S 180 10 min 0 UV-I 262 W/m 4,8 km/h (1 Bft)
24.06.2007 20:10 22,2 C 53 % 1009,2 hPa 0,0 mm 1,6 km/h (1 Bft) S-SO 157 10 min 0 UV-I 207 W/m 6,4 km/h (2 Bft)
24.06.2007 20:20 21,9 C 54 % 1009,2 hPa 0,0 mm 1,6 km/h (1 Bft) S 180 10 min 0 UV-I 158 W/m 4,8 km/h (1 Bft)
24.06.2007 20:30 21,7 C 54 % 1009,2 hPa 0,0 mm 1,6 km/h (1 Bft) S-SW 202 0 min 0 UV-I 86 W/m 6,4 km/h (2 Bft)
24.06.2007 20:40 21,4 C 57 % 1009,2 hPa 0,0 mm 1,6 km/h (1 Bft) S 180 0 min 0 UV-I 49 W/m 4,8 km/h (1 Bft)
24.06.2007 20:50 21,0 C 59 % 1009,1 hPa 0,0 mm 1,6 km/h (1 Bft) SO 135 0 min 0 UV-I 30 W/m 6,4 km/h (2 Bft)
24.06.2007 21:00 20,6 C 62 % 1009,1 hPa 0,0 mm 1,6 km/h (1 Bft) S-SO 157 0 min 0 UV-I 32 W/m 3,2 km/h (1 Bft)
24.06.2007 21:10 20,2 C 62 % 1009,2 hPa 0,0 mm 1,6 km/h (1 Bft) S-SO 157 0 min 0 UV-I 32 W/m 4,8 km/h (1 Bft)
24.06.2007 21:20 20,0 C 62 % 1009,3 hPa 0,0 mm 1,6 km/h (1 Bft) S-SO 157 0 min 0 UV-I 21 W/m 4,8 km/h (1 Bft)
24.06.2007 21:30 19,7 C 64 % 1009,3 hPa 0,0 mm 1,6 km/h (1 Bft) S-SO 157 10 min 0 UV-I 14 W/m 4,8 km/h (1 Bft)
24.06.2007 21:40 19,4 C 65 % 1009,2 hPa 0,0 mm 1,6 km/h (1 Bft) S-SO 157 0 min 0 UV-I 7 W/m 6,4 km/h (2 Bft)
24.06.2007 21:50 19,2 C 68 % 1009,2 hPa 0,0 mm 0,0 km/h (0 Bft) O-SO 112 0 min 0 UV-I 0 W/m 3,2 km/h (1 Bft)
24.06.2007 22:00 18,7 C 69 % 1009,3 hPa 0,0 mm 1,6 km/h (1 Bft) O-SO 112 0 min 0 UV-I 0 W/m 4,8 km/h (1 Bft)
24.06.2007 22:10 18,6 C 69 % 1009,2 hPa 0,0 mm 1,6 km/h (1 Bft) SO 135 0 min 0 UV-I 0 W/m 6,4 km/h (2 Bft)
24.06.2007 22:20 18,3 C 71 % 1009,2 hPa 0,0 mm 1,6 km/h (1 Bft) S-SO 157 0 min 0 UV-I 0 W/m 6,4 km/h (2 Bft)
24.06.2007 22:30 18,1 C 71 % 1009,1 hPa 0,0 mm 1,6 km/h (1 Bft) SO 135 0 min 0 UV-I 0 W/m 4,8 km/h (1 Bft)
24.06.2007 22:40 18,0 C 71 % 1009,2 hPa 0,0 mm 1,6 km/h (1 Bft) S-SO 157 0 min 0 UV-I 0 W/m 4,8 km/h (1 Bft)
24.06.2007 22:50 17,9 C 71 % 1009,1 hPa 0,0 mm 1,6 km/h (1 Bft) SO 135 0 min 0 UV-I 0 W/m 4,8 km/h (1 Bft)
24.06.2007 23:00 17,7 C 72 % 1009,0 hPa 0,0 mm 0,0 km/h (0 Bft) S-SO 157 0 min 0 UV-I 0 W/m 4,8 km/h (1 Bft)
24.06.2007 23:10 17,3 C 73 % 1008,8 hPa 0,0 mm 0,0 km/h (0 Bft) SO 135 0 min 0 UV-I 0 W/m 3,2 km/h (1 Bft)
24.06.2007 23:20 16,9 C 75 % 1008,8 hPa 0,0 mm 0,0 km/h (0 Bft) SO 135 0 min 0 UV-I 0 W/m 1,6 km/h (1 Bft)
24.06.2007 23:30 16,8 C 76 % 1008,8 hPa 0,0 mm 0,0 km/h (0 Bft) N 0 0 min 0 UV-I 0 W/m 0,0 km/h (0 Bft)
24.06.2007 23:40 16,7 C 78 % 1008,8 hPa 0,0 mm 0,0 km/h (0 Bft) N 0 0 min 0 UV-I 0 W/m 0,0 km/h (0 Bft)
24.06.2007 23:50 16,4 C 79 % 1008,9 hPa 0,0 mm 0,0 km/h (0 Bft) N 0 0 min 0 UV-I 0 W/m 0,0 km/h (0 Bft)
_ Min-Zeit 03:40 16:10 23:10 - 00:00 - - - - - 23:30
Minimum _ 13,7 C 48 % 1008,8 hPa - 0,0 km/h (0 Bft) - - - - - 0,0 km/h (0 Bft)
_ Max-Zeit 18:10 00:00 09:00 07:20 12:00 - - 06:40 14:20 14:20 12:00
Maximum _ 22,9 C 91 % 1013,0 hPa 0,3 mm 6,4 km/h
W-SW (2 Bft)
- - 10 min 9 UV-I 1223 W/m 22,5 km/h
N (4 Bft)
Durchschnitt _ 18,1 C 71 % 1011,3 hPa #0,3 mm 2,5 km/h (1 Bft) S-SW - #9:30 h 3 UV-I 381 W/m 7,7 km/h (2 Bft)